Latest Weather Observations for Friendly Beaches

IDT60801

Issued at 4:01 pm EST Friday 3 July 2015 (issued every 30 minutes, with the page automatically refreshed every 10 minutes)

About weather observations | Map of weather stations | Latest weather observations for TAS | Other Formats
Station Details ID: 092114 Name: FRIENDLY BEACHES Lat: -42.00 Lon: 148.28 Height: 55.0 m
Data from the previous 72 hours. | See also: Recent months at Friendly Beaches
Date/Time
EST
Temp
°C
App
Temp
°C
Dew
Point
Rel
Hum
%
Delta-T
°C
Wind Press
QNH
hPa
Press
MSL
hPa
Rain
since 9 am
mm
Dir
 
Spd
km/h
Gust
km/h
Spd
kts
Gust
kts
03/04:00pm 9.3 6.6 2.6 63 2.8 SSW 6 6 3 3 1016.9 1017.0 0.0
03/03:30pm 10.4 7.6 2.3 57 3.4 S 6 7 3 4 1017.0 1017.1 0.0
03/03:00pm 12.1 9.1 2.3 51 4.2 SSW 7 11 4 6 1017.2 1017.3 0.0
03/02:30pm 13.2 10.4 -0.1 40 5.5 WSW 4 9 2 5 1017.4 1017.5 0.0
03/02:00pm 12.2 9.2 2.1 50 4.4 NE 7 19 4 10 1018.1 1018.2 0.0
03/01:30pm 12.2 8.1 2.1 50 4.4 NE 13 19 7 10 1018.5 1018.6 0.0
03/01:00pm 12.7 8.9 -0.5 40 5.4 NW 9 15 5 8 1019.2 1019.3 0.0
03/12:30pm 12.3 9.0 -0.9 40 5.3 NW 6 11 3 6 1020.0 1020.0 0.0
03/12:00pm 11.9 8.8 0.1 44 4.8 NNW 6 11 3 6 1020.5 1020.5 0.0
03/11:30am 11.1 7.8 0.2 47 4.5 NW 7 13 4 7 1021.0 1021.1 0.0
03/11:00am 10.2 7.6 0.8 52 3.8 WSW 4 7 2 4 1021.7 1021.8 0.0
03/10:30am 9.7 7.0 0.3 52 3.8 NNW 4 7 2 4 1022.0 1022.1 0.0
03/10:00am 7.4 4.8 1.0 64 2.6 NW 4 6 2 3 1022.3 1022.4 0.0
03/09:30am 6.2 3.6 0.9 69 2.1 NW 4 6 2 3 1022.4 1022.5 0.0
03/09:00am 5.0 2.7 0.6 73 1.7 N 2 6 1 3 1022.8 1022.9 0.0
03/08:30am 4.3 1.5 -0.5 71 1.8 N 4 7 2 4 1022.4 1022.5 0.0
03/08:00am 3.9 0.6 -1.3 69 1.9 NW 6 7 3 4 1022.7 1022.8 0.0
03/07:30am 3.3 -0.2 -1.3 72 1.7 NNW 7 9 4 5 1022.6 1022.7 0.0
03/07:00am 2.9 -0.5 -0.9 76 1.4 NNW 7 11 4 6 1022.3 1022.4 0.0
03/06:30am 2.3 -1.0 -1.0 79 1.2 N 6 7 3 4 1022.2 1022.3 0.0
03/06:00am 3.5 0.3 -0.7 74 1.5 NNW 6 7 3 4 1022.0 1022.1 0.0
03/05:30am 3.0 -0.3 -1.0 75 1.5 NW 6 7 3 4 1021.9 1022.0 0.0
03/05:00am 3.6 0.3 -1.0 72 1.7 WNW 6 7 3 4 1022.0 1022.1 0.0
03/04:30am 3.7 0.2 -1.1 71 1.8 WNW 7 9 4 5 1022.2 1022.3 0.0
03/04:00am 3.9 -0.2 -0.5 73 1.6 W 11 15 6 8 1022.1 1022.2 0.0
03/03:30am 3.9 0.2 -0.3 74 1.6 W 9 11 5 6 1022.2 1022.3 0.0
03/03:00am 3.7 0.4 -0.1 76 1.4 WNW 7 9 4 5 1022.3 1022.4 0.0
03/02:30am 3.5 -0.6 -0.5 75 1.5 W 11 17 6 9 1022.2 1022.3 0.0
03/02:00am 3.9 -0.3 -0.7 72 1.7 WSW 11 15 6 8 1022.1 1022.2 0.0
03/01:30am 3.4 -0.4 -0.4 76 1.4 WSW 9 13 5 7 1021.9 1022.0 0.0
03/01:00am 3.3 -0.1 -0.7 75 1.5 WSW 7 11 4 6 1021.9 1022.0 0.0
03/12:30am 3.6 -1.0 -0.8 73 1.6 WSW 13 17 7 9 1022.0 1022.1 0.0
03/12:00am 3.4 -0.1 -1.3 71 1.7 W 7 11 4 6 1022.5 1022.6 0.0
 
Date/Time
EST
Temp
°C
App
Temp
°C
Dew
Point
Rel
Hum
%
Delta-T
°C
Wind Press
QNH
hPa
Press
MSL
hPa
Rain
since 9 am
mm
Dir
 
Spd
km/h
Gust
km/h
Spd
kts
Gust
kts
02/11:30pm 3.2 -0.3 -1.2 73 1.6 W 7 9 4 5 1022.5 1022.6 0.0
02/11:00pm 3.6 0.2 -0.8 73 1.6 W 7 11 4 6 1022.5 1022.6 0.0
02/10:30pm 4.6 0.0 -0.8 68 2.0 W 13 19 7 10 1021.9 1022.0 0.0
02/10:00pm 4.9 0.0 -0.5 68 2.0 WSW 15 22 8 12 1021.8 1021.9 0.0
02/09:30pm 4.7 0.2 -0.3 70 1.9 W 13 20 7 11 1021.8 1021.9 0.0
02/09:00pm 4.8 0.7 -0.2 70 1.9 WSW 11 20 6 11 1021.5 1021.6 0.0
02/08:30pm 5.1 0.3 0.3 71 1.8 WSW 15 22 8 12 1021.0 1021.1 0.0
02/08:00pm 5.2 1.2 0.2 70 1.9 W 11 17 6 9 1020.9 1020.9 0.0
02/07:30pm 5.8 1.3 0.0 66 2.2 W 13 24 7 13 1020.4 1020.4 0.0
02/07:00pm 5.9 1.5 0.3 67 2.2 W 13 20 7 11 1019.5 1019.6 0.0
02/06:30pm 6.5 2.1 0.4 65 2.4 WSW 13 24 7 13 1019.1 1019.2 0.0
02/06:00pm 7.2 2.4 0.4 62 2.7 WSW 15 33 8 18 1018.7 1018.8 0.0
02/05:30pm 7.3 2.4 -0.2 59 2.9 WSW 15 28 8 15 1018.1 1018.2 0.0
02/05:00pm 7.6 2.8 0.1 59 2.9 WSW 15 22 8 12 1017.6 1017.7 0.0
02/04:30pm 8.0 2.5 0.3 58 3.1 WSW 19 33 10 18 1016.7 1016.8 0.0
02/04:00pm 8.4 2.3 0.1 56 3.3 WSW 22 41 12 22 1016.2 1016.3 0.0
02/03:30pm 8.9 2.9 0.9 57 3.3 WSW 22 32 12 17 1015.7 1015.8 0.0
02/03:00pm 9.4 3.7 0.3 53 3.7 WSW 20 37 11 20 1015.5 1015.6 0.0
02/02:30pm 9.5 3.8 0.4 53 3.7 WSW 20 37 11 20 1014.7 1014.8 0.0
02/02:03pm 10.4 3.2 0.4 50 4.1 WSW 28 54 15 29 1014.2 1014.3 0.0
02/02:00pm 10.5 3.6 0.3 49 4.2 WSW 26 46 14 25 1014.1 1014.2 0.0
02/01:30pm 10.6 3.6 -0.2 47 4.4 WSW 26 43 14 23 1013.6 1013.7 0.0
02/01:11pm 10.5 3.1 -0.6 46 4.4 WSW 28 48 15 26 1013.2 1013.3 0.0
02/01:00pm 10.7 4.2 0.2 48 4.3 WSW 24 48 13 26 1013.2 1013.3 0.0
02/12:30pm 10.2 2.5 -0.3 48 4.2 WSW 30 54 16 29 1013.0 1013.1 0.0
02/12:26pm 10.2 2.8 -0.6 47 4.3 WSW 28 54 15 29 1012.9 1013.0 0.0
02/12:00pm 10.1 3.5 -0.4 48 4.2 WSW 24 48 13 26 1012.4 1012.5 0.0
02/11:51am 9.9 2.4 -1.2 46 4.3 WSW 28 48 15 26 1012.1 1012.2 0.0
02/11:30am 9.7 3.1 -0.5 49 4.0 WSW 24 37 13 20 1012.2 1012.3 0.0
02/11:00am 9.3 2.7 -0.3 51 3.8 WSW 24 39 13 21 1012.2 1012.3 0.0
02/10:30am 8.9 2.7 -0.4 52 3.7 WSW 22 39 12 21 1012.1 1012.2 0.0
02/10:00am 8.5 2.8 -0.5 53 3.5 WSW 19 30 10 16 1012.0 1012.1 0.0
02/09:30am 7.7 2.8 -0.5 56 3.2 WSW 15 26 8 14 1011.3 1011.4 0.0
02/09:00am 6.4 1.9 -0.6 61 2.7 WSW 13 17 7 9 1011.2 1011.3 0.0
02/08:30am 5.8 2.0 -0.5 64 2.4 SW 9 17 5 9 1011.1 1011.2 0.0
02/08:00am 5.1 1.6 -1.1 64 2.3 W 7 17 4 9 1010.5 1010.6 0.0
02/07:30am 5.5 2.0 -1.2 62 2.5 WSW 7 15 4 8 1010.0 1010.1 0.0
02/07:00am 5.7 2.2 -1.4 60 2.6 WSW 7 15 4 8 1009.3 1009.4 0.0
02/06:30am 6.3 2.0 -1.3 58 2.8 WSW 11 19 6 10 1008.7 1008.8 0.0
02/06:00am 6.7 1.0 -0.7 59 2.8 WSW 19 32 10 17 1008.0 1008.1 0.0
02/05:30am 7.0 0.3 -0.9 57 3.0 W 24 39 13 21 1007.6 1007.7 0.0
02/05:00am 7.4 0.7 -1.0 55 3.2 W 24 37 13 20 1007.1 1007.2 0.0
02/04:30am 7.3 2.8 -0.2 59 2.9 WSW 13 22 7 12 1007.4 1007.5 0.0
02/04:00am 8.1 2.2 -0.6 54 3.4 WSW 20 30 11 16 1007.3 1007.4 0.0
02/03:30am 8.4 2.5 -0.9 52 3.6 WSW 20 39 11 21 1006.9 1007.0 0.0
02/03:00am 8.4 3.1 -0.4 54 3.5 W 17 30 9 16 1006.5 1006.6 0.0
02/02:30am 8.8 3.7 0.5 56 3.3 W 17 28 9 15 1006.2 1006.3 0.0
02/02:00am 9.4 3.4 1.3 57 3.4 W 22 39 12 21 1005.8 1005.8 0.0
02/01:30am 9.6 4.2 2.7 62 2.9 W 20 33 11 18 1005.6 1005.6 0.0
02/01:00am 9.2 4.2 3.8 69 2.4 W 19 33 10 18 1005.1 1005.1 0.0
02/12:30am 9.7 5.6 4.5 70 2.3 WSW 15 24 8 13 1005.7 1005.7 0.0
02/12:00am 10.3 6.4 5.3 71 2.3 WSW 15 26 8 14 1005.6 1005.6 0.0
 
Date/Time
EST
Temp
°C
App
Temp
°C
Dew
Point
Rel
Hum
%
Delta-T
°C
Wind Press
QNH
hPa
Press
MSL
hPa
Rain
since 9 am
mm
Dir
 
Spd
km/h
Gust
km/h
Spd
kts
Gust
kts
01/11:30pm 10.7 7.7 6.1 73 2.1 W 11 24 6 13 1005.5 1005.5 0.0
01/11:00pm 9.7 8.0 6.1 78 1.7 NW 4 9 2 5 1005.3 1005.3 0.0
01/10:30pm 10.9 6.9 6.6 75 2.0 SW 17 26 9 14 1005.5 1005.5 0.0
01/10:00pm 12.5 8.0 6.8 68 2.7 W 20 50 11 27 1005.6 1005.6 0.0
01/09:30pm 13.0 7.8 5.7 61 3.4 WNW 22 48 12 26 1005.7 1005.7 0.0
01/09:00pm 12.9 7.2 5.1 59 3.6 WNW 24 44 13 24 1005.8 1005.8 0.0
01/08:30pm 12.7 6.9 4.4 57 3.8 WNW 24 48 13 26 1005.3 1005.3 0.0
01/08:00pm 12.5 5.8 3.5 54 4.0 NW 28 46 15 25 1005.7 1005.7 0.0
01/07:30pm 12.6 4.9 3.6 54 4.0 NW 33 57 18 31 1006.2 1006.3 0.0
01/07:07pm 12.4 6.1 3.6 55 3.9 NW 26 67 14 36 1007.0 1007.1 0.0
01/07:00pm 12.2 6.6 3.2 54 4.0 NW 22 50 12 27 1007.7 1007.8 0.0
01/06:30pm 12.0 7.2 2.5 52 4.1 NW 17 35 9 19 1008.8 1008.9 0.0
01/06:00pm 11.9 6.6 3.2 55 3.8 NNW 20 41 11 22 1009.7 1009.8 0.0
01/05:30pm 12.1 6.6 3.9 57 3.7 NW 22 44 12 24 1010.5 1010.6 0.0
01/05:00pm 12.3 6.7 3.5 55 3.9 NW 22 44 12 24 1010.4 1010.5 0.0
01/04:30pm 12.2 7.2 3.7 56 3.8 NW 19 37 10 20 1011.0 1011.1 0.0
01/04:03pm 12.4 5.7 3.9 56 3.8 NW 28 46 15 25 1011.7 1011.8 0.0
01/04:00pm 12.4 6.5 3.9 56 3.8 NW 24 46 13 25 1011.6 1011.7 0.0
01/03:30pm 12.7 7.8 3.9 55 4.0 WNW 19 39 10 21 1012.1 1012.2 0.0
01/03:00pm 13.0 7.4 3.4 52 4.3 WNW 22 39 12 21 1012.4 1012.5 0.0
01/02:30pm 13.0 8.3 3.4 52 4.3 NW 17 33 9 18 1012.7 1012.8 0.0
01/02:00pm 13.8 8.7 3.3 49 4.7 NW 19 33 10 18 1013.4 1013.5 0.0
01/01:30pm 13.6 8.5 3.1 49 4.7 NW 19 33 10 18 1014.0 1014.1 0.0
01/01:00pm 12.9 7.3 3.3 52 4.3 NNW 22 43 12 23 1014.8 1014.9 0.0
01/12:30pm 12.9 8.4 4.1 55 4.0 NW 17 32 9 17 1016.1 1016.2 0.0
01/12:00pm 12.5 7.0 4.2 57 3.8 WNW 22 39 12 21 1017.1 1017.2 0.0
01/11:30am 12.4 7.3 4.1 57 3.8 WNW 20 39 11 21 1017.8 1017.9 0.0
01/11:00am 12.1 6.7 4.3 59 3.5 WNW 22 41 12 22 1018.4 1018.5 0.0
01/10:30am 11.7 8.3 4.2 60 3.4 WNW 11 20 6 11 1019.0 1019.1 0.0
01/10:00am 10.5 6.4 4.2 65 2.8 WNW 15 26 8 14 1019.3 1019.4 0.0
01/09:30am 9.3 5.6 4.5 72 2.1 NW 13 20 7 11 1019.6 1019.7 0.0
01/09:00am 7.3 4.6 3.5 77 1.6 NW 7 13 4 7 1020.1 1020.1 0.0
01/08:30am 6.4 3.5 2.5 76 1.6 WNW 7 13 4 7 1020.1 1020.1 0.0
01/08:00am 5.8 2.8 2.1 77 1.5 WNW 7 9 4 5 1020.3 1020.3 0.0
01/07:30am 4.8 1.1 2.2 83 1.0 WNW 11 15 6 8 1020.5 1020.5 0.0
01/07:00am 4.3 1.0 2.2 86 0.8 W 9 13 5 7 1020.9 1020.9 0.0
01/06:30am 4.8 0.7 2.5 85 0.9 W 13 17 7 9 1021.1 1021.1 0.0
01/06:00am 3.4 -0.5 1.4 87 0.8 WNW 11 15 6 8 1021.0 1021.0 0.0
01/05:30am 4.3 0.9 2.0 85 0.9 WNW 9 11 5 6 1020.8 1020.8 0.0
01/05:00am 3.8 -0.4 1.7 86 0.8 WNW 13 15 7 8 1021.1 1021.1 0.0
01/04:30am 2.9 -1.7 1.7 92 0.5 WNW 15 19 8 10 1021.1 1021.1 0.0
01/04:00am 2.7 -1.9 1.4 91 0.5 WNW 15 17 8 9 1021.4 1021.4 0.0
01/03:30am 3.7 -0.8 2.1 89 0.6 WNW 15 19 8 10 1021.8 1021.8 0.0
01/03:00am 3.6 -0.5 2.0 89 0.6 WNW 13 17 7 9 1022.2 1022.2 0.0
01/02:30am 4.2 0.1 2.2 87 0.8 WNW 13 17 7 9 1022.4 1022.4 0.0
01/02:00am 4.7 0.6 2.2 84 1.0 WNW 13 19 7 10 1022.5 1022.5 0.0
01/01:30am 4.7 0.6 2.2 84 1.0 WNW 13 17 7 9 1022.8 1022.8 0.0
01/01:00am 5.2 1.2 2.6 83 1.1 WNW 13 17 7 9 1022.9 1022.9 0.0
01/12:30am 4.8 0.8 2.8 87 0.8 WNW 13 17 7 9 1023.3 1023.4 0.0
01/12:00am 4.6 0.2 2.8 88 0.7 WNW 15 17 8 9 1023.6 1023.7 0.0
 
Date/Time
EST
Temp
°C
App
Temp
°C
Dew
Point
Rel
Hum
%
Delta-T
°C
Wind Press
QNH
hPa
Press
MSL
hPa
Rain
since 9 am
mm
Dir
 
Spd
km/h
Gust
km/h
Spd
kts
Gust
kts
30/11:30pm 5.0 0.8 3.7 91 0.5 WNW 15 17 8 9 1023.8 1023.9 0.0
30/11:00pm 4.0 -0.3 3.1 94 0.4 WNW 15 17 8 9 1023.8 1023.9 0.0
30/10:30pm 4.2 0.2 3.0 92 0.5 WNW 13 17 7 9 1023.6 1023.7 0.0
30/10:00pm 6.2 2.8 4.2 87 0.9 WNW 11 11 6 6 1023.7 1023.8 0.0
30/09:30pm 6.1 2.4 4.6 90 0.6 WNW 13 15 7 8 1023.9 1024.0 0.0
30/09:00pm 5.7 2.3 4.2 90 0.6 WNW 11 11 6 6 1024.0 1024.1 0.0
30/08:30pm 5.8 3.4 4.3 90 0.6 W 6 9 3 5 1024.0 1024.1 0.0
30/08:00pm 7.0 4.3 3.6 79 1.4 WNW 7 11 4 6 1024.0 1024.1 0.0
30/07:30pm 8.9 5.9 4.3 73 2.0 N 9 13 5 7 1023.9 1024.0 0.0
30/07:00pm 8.6 5.8 5.2 79 1.5 NNW 9 11 5 6 1023.9 1024.0 0.0
30/06:30pm 7.7 5.5 5.2 84 1.1 NNW 6 7 3 4 1023.7 1023.8 0.0
30/06:00pm 7.7 5.4 5.5 86 1.0 N 7 7 4 4 1023.8 1023.9 0.0
30/05:30pm 8.0 5.8 5.3 83 1.2 N 6 9 3 5 1023.7 1023.8 0.0
30/05:00pm 8.5 6.1 5.3 80 1.4 N 7 9 4 5 1023.5 1023.6 0.0
30/04:30pm 9.7 7.3 5.3 74 2.0 NNE 7 9 4 5 1023.4 1023.5 0.0

Other Formats:

Comma delimited format used in spreadsheet applications
http://www.bom.gov.au/fwo/IDT60801/IDT60801.94987.axf

JavaScript Object Notation format (JSON) in row-major order
http://www.bom.gov.au/fwo/IDT60801/IDT60801.94987.json